Time;durP1;ratioP1;P1;durP2;ratioP2;P2;SDS_P1;SDS_P2;PMS_P1;PMS_P2;Temp;Humidity;BMP_temperature;BMP_pressure;BME280_temperature;BME280_humidity;BME280_pressure;Samples;Min_cycle;Max_cycle;Signal;HPM_P1;HPM_P2
2023/08/14 00:01:24;;;;;;;1.10;1.10;;;;;;;22.82;57.38;99743.44;5050577;28;20208;-66
2023/08/14 00:03:51;;;;;;;0.97;0.97;;;;;;;22.76;57.74;99738.69;5050761;28;20204;-65
2023/08/14 00:06:20;;;;;;;0.73;0.73;;;;;;;22.63;58.18;99737.88;5050772;28;20728;-66
2023/08/14 00:08:46;;;;;;;1.57;0.77;;;;;;;22.63;58.30;99743.13;5050424;28;20197;-65
2023/08/14 00:11:13;;;;;;;0.70;0.70;;;;;;;22.60;58.96;99739.88;5050413;28;20196;-66
2023/08/14 00:13:51;;;;;;;1.10;1.10;;;;;;;22.52;58.84;99729.19;5050354;28;20192;-65
2023/08/14 00:16:18;;;;;;;0.90;0.90;;;;;;;22.53;59.77;99736.91;5053176;28;20216;-65
2023/08/14 00:18:45;;;;;;;0.63;0.63;;;;;;;22.43;59.81;99736.75;5054620;28;20687;-65
2023/08/14 00:21:11;;;;;;;0.80;0.80;;;;;;;22.38;59.88;99738.03;5054485;28;20232;-65
2023/08/14 00:23:40;;;;;;;0.70;0.70;;;;;;;22.34;60.03;99741.81;5050406;28;20220;-65
2023/08/14 00:26:06;;;;;;;1.07;0.50;;;;;;;22.31;60.18;99742.03;5054004;28;20704;-66
2023/08/14 00:28:33;;;;;;;0.70;0.70;;;;;;;22.24;60.95;99741.66;5054431;28;20196;-65
2023/08/14 00:31:00;;;;;;;0.80;0.80;;;;;;;22.21;60.50;99741.03;5053789;28;20200;-65
2023/08/14 00:33:27;;;;;;;1.10;0.67;;;;;;;22.14;61.03;99738.03;5053919;28;20205;-65
2023/08/14 00:35:53;;;;;;;0.97;0.60;;;;;;;22.03;60.94;99738.00;5053921;28;20638;-65
2023/08/14 00:38:20;;;;;;;0.90;0.90;;;;;;;21.95;61.23;99741.13;5053356;28;20217;-65
2023/08/14 00:40:49;;;;;;;1.37;1.13;;;;;;;21.96;61.44;99741.97;5054159;28;20197;-65
2023/08/14 00:43:15;;;;;;;0.60;0.60;;;;;;;21.97;62.30;99739.25;5054110;28;20204;-65
2023/08/14 00:45:43;;;;;;;0.70;0.70;;;;;;;21.94;62.18;99733.41;5054023;28;20230;-65
2023/08/14 00:48:10;;;;;;;0.87;0.80;;;;;;;21.87;62.21;99737.38;5053701;28;20200;-65
2023/08/14 00:50:37;;;;;;;0.60;0.60;;;;;;;21.91;62.69;99737.06;5052653;28;20196;-65
2023/08/14 00:53:05;;;;;;;0.80;0.80;;;;;;;21.89;62.35;99738.97;5053657;28;20200;-66
2023/08/14 00:55:32;;;;;;;0.87;0.87;;;;;;;21.91;62.45;99731.84;5053390;28;20425;-65
2023/08/14 00:58:01;;;;;;;0.70;0.70;;;;;;;21.96;62.57;99737.59;5053596;28;20688;-65
2023/08/14 01:00:29;;;;;;;0.77;0.77;;;;;;;21.84;63.09;99738.41;5053526;28;20251;-65
2023/08/14 01:02:56;;;;;;;0.70;0.70;;;;;;;21.80;63.15;99739.59;5053272;28;20204;-65
2023/08/14 01:05:23;;;;;;;0.60;0.60;;;;;;;21.80;63.38;99736.16;5052155;28;20208;-65
2023/08/14 01:07:50;;;;;;;0.60;0.60;;;;;;;21.79;63.63;99734.47;5053295;28;20220;-65
2023/08/14 01:10:17;;;;;;;0.80;0.80;;;;;;;21.76;63.16;99732.91;5053258;28;20209;-65
2023/08/14 01:12:50;;;;;;;0.90;0.90;;;;;;;21.75;63.59;99733.00;5053520;28;20242;-65
2023/08/14 01:15:24;;;;;;;0.90;0.90;;;;;;;21.72;63.75;99730.63;5053500;28;20290;-65
2023/08/14 01:17:54;;;;;;;1.70;1.07;;;;;;;21.57;63.95;99719.50;5053213;28;20204;-65
2023/08/14 01:20:22;;;;;;;0.80;0.80;;;;;;;21.57;64.65;99724.72;5053086;28;20209;-65
2023/08/14 01:23:00;;;;;;;0.77;0.77;;;;;;;21.64;64.70;99736.41;5053046;28;20226;-65
2023/08/14 01:25:31;;;;;;;1.03;1.03;;;;;;;21.64;64.70;99741.63;5052684;28;20191;-65
2023/08/14 01:27:59;;;;;;;0.87;0.87;;;;;;;21.61;64.82;99741.84;5052672;28;20239;-65
2023/08/14 01:30:26;;;;;;;0.80;0.80;;;;;;;21.54;65.38;99735.38;5052918;28;20212;-65
2023/08/14 01:32:53;;;;;;;0.77;0.77;;;;;;;21.51;66.08;99732.97;5052275;28;20200;-65
2023/08/14 01:35:22;;;;;;;0.73;0.73;;;;;;;21.38;66.71;99719.97;5052465;28;20220;-65
2023/08/14 01:37:56;;;;;;;0.70;0.70;;;;;;;21.35;66.68;99724.53;5052906;28;20600;-65
2023/08/14 01:40:32;;;;;;;0.77;0.77;;;;;;;21.35;67.52;99740.19;5052924;28;20199;-65
2023/08/14 01:43:01;;;;;;;1.00;0.70;;;;;;;21.17;68.61;99741.44;5052796;28;20196;-65
2023/08/14 01:45:31;;;;;;;1.00;0.73;;;;;;;21.08;69.22;99736.81;5052694;28;20200;-65
2023/08/14 01:47:59;;;;;;;0.80;0.80;;;;;;;21.05;69.38;99737.03;5052753;28;20204;-65
2023/08/14 01:50:29;;;;;;;0.83;0.83;;;;;;;20.95;70.06;99732.44;5052571;28;20250;-65
2023/08/14 01:52:57;;;;;;;0.90;0.90;;;;;;;20.81;70.25;99723.88;5052466;28;20266;-65
2023/08/14 01:55:25;;;;;;;4.77;1.13;;;;;;;20.75;70.59;99730.31;5052428;28;20228;-65
2023/08/14 01:57:53;;;;;;;0.80;0.80;;;;;;;20.69;70.50;99729.91;5052461;28;20196;-65
2023/08/14 02:00:20;;;;;;;0.73;0.73;;;;;;;20.59;71.13;99729.69;5052364;28;20207;-65
2023/08/14 02:02:47;;;;;;;2.03;1.30;;;;;;;20.51;71.63;99731.97;5051539;28;20570;-65
2023/08/14 02:05:14;;;;;;;1.33;1.10;;;;;;;20.52;71.82;99722.38;5052510;28;20200;-65
2023/08/14 02:07:42;;;;;;;0.97;0.97;;;;;;;20.48;72.03;99726.97;5052356;28;20205;-65
2023/08/14 02:10:09;;;;;;;0.67;0.67;;;;;;;20.48;72.00;99721.75;5052288;28;20202;-65
2023/08/14 02:12:36;;;;;;;1.00;1.00;;;;;;;20.48;72.24;99716.53;5052037;28;20203;-65
2023/08/14 02:15:05;;;;;;;0.80;0.80;;;;;;;20.46;72.75;99713.19;5050638;28;20218;-65
2023/08/14 02:17:31;;;;;;;0.90;0.83;;;;;;;20.44;72.81;99717.66;5051846;28;20692;-65
2023/08/14 02:19:58;;;;;;;1.17;1.17;;;;;;;20.42;73.28;99715.16;5051828;28;20199;-65
2023/08/14 02:22:25;;;;;;;0.77;0.77;;;;;;;20.39;73.57;99719.72;5051919;28;20291;-65
2023/08/14 02:24:52;;;;;;;0.63;0.63;;;;;;;20.40;73.73;99717.03;5051785;28;20208;-65
2023/08/14 02:27:18;;;;;;;0.80;0.80;;;;;;;20.39;74.21;99715.34;5052167;28;20213;-65
2023/08/14 02:29:46;;;;;;;0.90;0.90;;;;;;;20.35;75.21;99715.69;5051940;28;20207;-65
2023/08/14 02:32:14;;;;;;;0.80;0.80;;;;;;;20.30;75.99;99722.94;5046173;28;20204;-65
2023/08/14 02:34:45;;;;;;;0.70;0.70;;;;;;;20.22;76.96;99714.75;5051523;28;20256;-65
2023/08/14 02:37:12;;;;;;;1.00;1.00;;;;;;;20.19;77.30;99720.16;5051665;28;20207;-65
2023/08/14 02:39:39;;;;;;;0.70;0.70;;;;;;;20.16;77.90;99730.78;5051250;28;20207;-65
2023/08/14 02:42:06;;;;;;;1.17;1.17;;;;;;;20.16;78.33;99723.78;5051433;28;20199;-65
2023/08/14 02:44:33;;;;;;;0.70;0.70;;;;;;;20.17;77.76;99724.63;5051757;28;20206;-65
2023/08/14 02:47:00;;;;;;;0.60;0.60;;;;;;;20.20;77.89;99727.03;5051706;28;20199;-65
2023/08/14 02:49:29;;;;;;;2.83;0.97;;;;;;;20.25;78.05;99732.78;5051672;28;20558;-65
2023/08/14 02:51:55;;;;;;;0.70;0.70;;;;;;;20.27;78.02;99738.75;5051123;28;20250;-65
2023/08/14 02:54:22;;;;;;;0.70;0.70;;;;;;;20.29;78.27;99729.09;5051518;28;20205;-65
2023/08/14 02:56:49;;;;;;;0.87;0.87;;;;;;;20.23;78.43;99719.84;5051211;28;20229;-65
2023/08/14 02:59:16;;;;;;;1.60;1.43;;;;;;;20.26;78.39;99721.41;5051420;28;20667;-65
2023/08/14 03:01:43;;;;;;;0.80;0.80;;;;;;;20.17;78.79;99711.59;5050946;28;20207;-65
2023/08/14 03:04:10;;;;;;;0.77;0.77;;;;;;;20.14;78.77;99704.00;5051177;28;20756;-65
2023/08/14 03:06:38;;;;;;;1.00;0.80;;;;;;;20.18;78.89;99724.53;5051312;28;20247;-65
2023/08/14 03:09:05;;;;;;;0.70;0.70;;;;;;;20.16;79.22;99720.38;5051497;28;20203;-65
2023/08/14 03:11:32;;;;;;;0.70;0.70;;;;;;;20.15;80.03;99714.31;5051315;28;20250;-65
2023/08/14 03:13:59;;;;;;;0.90;0.90;;;;;;;20.08;80.09;99733.88;5051184;28;20582;-65
2023/08/14 03:16:26;;;;;;;0.87;0.87;;;;;;;20.03;80.36;99715.13;5051042;28;20277;-65
2023/08/14 03:18:52;;;;;;;0.70;0.70;;;;;;;19.90;80.49;99704.63;5051132;28;20200;-65
2023/08/14 03:21:19;;;;;;;0.80;0.80;;;;;;;19.67;81.21;99665.41;5050847;28;20627;-65
2023/08/14 03:23:48;;;;;;;0.80;0.80;;;;;;;19.91;81.22;99711.50;5050911;28;20740;-65
2023/08/14 03:26:15;;;;;;;0.80;0.80;;;;;;;19.86;81.76;99708.38;5051112;28;20199;-65
2023/08/14 03:28:41;;;;;;;0.77;0.77;;;;;;;19.79;81.93;99701.88;5051351;28;20225;-65
2023/08/14 03:31:08;;;;;;;1.30;1.30;;;;;;;19.66;82.31;99695.78;5050772;28;20644;-65
2023/08/14 03:33:35;;;;;;;0.67;0.67;;;;;;;19.69;82.83;99707.75;5050628;28;20203;-65
2023/08/14 03:36:02;;;;;;;0.77;0.77;;;;;;;19.70;82.79;99712.88;5050759;28;20690;-65
2023/08/14 03:38:30;;;;;;;0.57;0.57;;;;;;;19.73;83.17;99712.69;5051182;28;20317;-65
2023/08/14 03:40:59;;;;;;;0.57;0.57;;;;;;;19.65;83.29;99696.69;5050834;28;20643;-65
2023/08/14 03:43:25;;;;;;;0.63;0.63;;;;;;;19.77;82.98;99714.13;5050753;28;20206;-65
2023/08/14 03:45:52;;;;;;;0.70;0.70;;;;;;;19.70;83.14;99697.25;5050947;28;20196;-65
2023/08/14 03:48:19;;;;;;;0.93;0.93;;;;;;;19.84;82.98;99710.22;5050914;28;20193;-65
2023/08/14 03:50:47;;;;;;;0.83;0.83;;;;;;;19.86;83.33;99713.59;5054332;28;20222;-65
2023/08/14 03:53:14;;;;;;;0.80;0.80;;;;;;;19.88;83.27;99709.09;5055013;28;20238;-65
2023/08/14 03:55:40;;;;;;;0.90;0.90;;;;;;;19.89;83.20;99710.78;5054573;28;20222;-65
2023/08/14 03:58:08;;;;;;;0.83;0.83;;;;;;;19.94;83.70;99713.06;5054695;28;20199;-65
2023/08/14 04:00:35;;;;;;;0.67;0.67;;;;;;;20.02;82.83;99713.44;5054701;28;20197;-65
2023/08/14 04:03:02;;;;;;;3.07;0.80;;;;;;;20.07;83.28;99718.34;5054272;28;20198;-65
2023/08/14 04:05:29;;;;;;;1.17;0.70;;;;;;;20.06;82.42;99724.50;5054644;28;20285;-65
2023/08/14 04:07:56;;;;;;;0.57;0.57;;;;;;;20.10;82.88;99720.72;5054856;28;20690;-65
2023/08/14 04:10:25;;;;;;;0.83;0.83;;;;;;;20.11;82.69;99720.66;5054353;28;20204;-65
2023/08/14 04:12:52;;;;;;;0.70;0.70;;;;;;;20.21;82.57;99723.50;5054534;28;20911;-65
2023/08/14 04:15:21;;;;;;;0.60;0.60;;;;;;;20.22;81.30;99727.78;5054311;28;20347;-65
2023/08/14 04:17:48;;;;;;;1.00;1.00;;;;;;;20.15;81.76;99739.50;5054447;28;20205;-65
2023/08/14 04:20:15;;;;;;;0.90;0.90;;;;;;;20.12;82.34;99740.56;5054252;28;20203;-65
2023/08/14 04:22:42;;;;;;;0.70;0.70;;;;;;;20.09;82.53;99742.50;5054289;28;20226;-65
2023/08/14 04:25:09;;;;;;;1.27;0.80;;;;;;;20.11;82.88;99748.44;5054165;28;20205;-65
2023/08/14 04:27:37;;;;;;;1.00;1.00;;;;;;;20.00;82.97;99735.28;5054206;28;20200;-65
2023/08/14 04:30:05;;;;;;;0.60;0.60;;;;;;;20.09;83.38;99755.53;5054268;28;20195;-65
2023/08/14 04:32:33;;;;;;;0.60;0.60;;;;;;;20.16;84.53;99754.22;5053540;28;20199;-64
2023/08/14 04:35:00;;;;;;;0.70;0.70;;;;;;;20.29;83.83;99753.34;5052075;28;20274;-65
2023/08/14 04:37:27;;;;;;;0.60;0.60;;;;;;;20.46;83.40;99754.00;5053842;28;20221;-65
2023/08/14 04:39:53;;;;;;;2.83;0.73;;;;;;;20.63;82.68;99756.38;5053879;28;20208;-65
2023/08/14 04:42:20;;;;;;;2.03;0.80;;;;;;;20.83;82.80;99764.53;5053905;28;20698;-65
2023/08/14 04:44:47;;;;;;;0.47;0.47;;;;;;;21.08;80.66;99762.88;5053680;28;20196;-65
2023/08/14 04:47:14;;;;;;;0.60;0.60;;;;;;;21.32;81.49;99766.50;5054258;28;20196;-65
2023/08/14 04:49:42;;;;;;;0.80;0.80;;;;;;;21.59;81.30;99767.19;5053808;28;20196;-65
2023/08/14 04:52:08;;;;;;;0.83;0.83;;;;;;;21.84;78.51;99774.94;5053891;28;20205;-65
2023/08/14 04:54:35;;;;;;;0.80;0.80;;;;;;;22.12;77.38;99778.25;5053635;28;20216;-65
2023/08/14 04:57:02;;;;;;;0.87;0.87;;;;;;;22.38;75.76;99775.44;5053566;28;20311;-65
2023/08/14 04:59:29;;;;;;;0.53;0.53;;;;;;;22.53;71.84;99778.72;5053241;28;20208;-65
2023/08/14 05:01:56;;;;;;;1.57;1.47;;;;;;;22.75;73.31;99784.03;5051437;28;20287;-65
2023/08/14 05:04:23;;;;;;;1.83;0.77;;;;;;;22.85;70.36;99774.56;5053271;28;20628;-65
2023/08/14 05:06:52;;;;;;;0.87;0.87;;;;;;;22.98;70.13;99775.31;5053628;28;20247;-65
2023/08/14 05:09:19;;;;;;;0.73;0.73;;;;;;;23.09;68.78;99781.53;5053603;28;20197;-65
2023/08/14 05:11:46;;;;;;;0.70;0.70;;;;;;;23.30;69.23;99785.13;5053246;28;20197;-65
2023/08/14 05:14:13;;;;;;;1.03;1.03;;;;;;;23.49;71.81;99796.72;5053619;28;20204;-65
2023/08/14 05:16:39;;;;;;;0.73;0.73;;;;;;;23.73;68.62;99793.16;5053345;28;20263;-65
2023/08/14 05:19:06;;;;;;;1.10;0.90;;;;;;;23.95;68.47;99793.13;5053349;28;20204;-65
2023/08/14 05:21:33;;;;;;;1.13;0.95;;;;;;;24.07;64.03;99792.19;5052343;28;20965;-66
2023/08/14 05:24:01;;;;;;;0.80;0.80;;;;;;;24.08;63.83;99798.22;5053223;28;20530;-66
2023/08/14 05:26:28;;;;;;;0.70;0.70;;;;;;;24.27;64.33;99787.97;5051315;28;20197;-68
2023/08/14 05:28:54;;;;;;;2.87;0.83;;;;;;;24.47;63.70;99780.19;5051402;28;20201;-67
2023/08/14 05:31:21;;;;;;;0.57;0.57;;;;;;;24.65;64.12;99793.59;5050601;28;20254;-67
2023/08/14 05:33:48;;;;;;;0.60;0.60;;;;;;;24.85;63.19;99786.69;5050421;28;20569;-64
2023/08/14 05:36:15;;;;;;;0.87;0.53;;;;;;;24.97;64.01;99794.41;5052116;28;20692;-64
2023/08/14 05:38:41;;;;;;;0.90;0.90;;;;;;;25.18;60.91;99790.94;5051805;28;20212;-64
2023/08/14 05:41:10;;;;;;;0.70;0.70;;;;;;;25.37;60.59;99796.28;5051775;28;20205;-64
2023/08/14 05:43:36;;;;;;;5.03;1.10;;;;;;;25.58;60.75;99797.97;5050813;28;20220;-64
2023/08/14 05:46:03;;;;;;;0.73;0.70;;;;;;;25.81;58.88;99790.72;5050094;28;20201;-65
2023/08/14 05:48:30;;;;;;;0.77;0.77;;;;;;;26.03;57.10;99793.13;5050459;28;20206;-66
2023/08/14 05:50:57;;;;;;;0.80;0.80;;;;;;;26.25;58.67;99789.47;5051635;28;20200;-65
2023/08/14 05:53:23;;;;;;;0.73;0.73;;;;;;;26.50;61.62;99793.34;5051331;28;20208;-64
2023/08/14 05:55:50;;;;;;;0.50;0.50;;;;;;;26.75;55.29;99798.09;5050826;28;20646;-66
2023/08/14 05:58:18;;;;;;;0.50;0.50;;;;;;;27.00;55.61;99794.06;5050594;28;20200;-64
2023/08/14 06:00:46;;;;;;;1.17;0.80;;;;;;;27.18;53.53;99796.78;5051052;28;20477;-64
2023/08/14 06:03:12;;;;;;;1.67;0.73;;;;;;;27.24;51.37;99789.16;5050111;28;20208;-64
2023/08/14 06:05:39;;;;;;;0.50;0.50;;;;;;;27.17;55.35;99795.16;5050390;28;20201;-64
2023/08/14 06:08:06;;;;;;;0.80;0.80;;;;;;;27.18;54.22;99795.00;5050260;28;20204;-63
2023/08/14 06:10:33;;;;;;;0.70;0.50;;;;;;;27.21;53.63;99799.97;5050462;28;20229;-64
2023/08/14 06:13:00;;;;;;;0.60;0.60;;;;;;;27.34;56.54;99805.75;5049530;28;20642;-66
2023/08/14 06:15:28;;;;;;;0.60;0.60;;;;;;;27.65;57.69;99798.50;5050358;28;20201;-65
2023/08/14 06:17:55;;;;;;;4.60;0.70;;;;;;;27.92;53.72;99803.75;5049711;28;20224;-65
2023/08/14 06:20:22;;;;;;;1.17;0.70;;;;;;;28.01;52.23;99799.44;5049681;28;20570;-65
2023/08/14 06:22:49;;;;;;;0.50;0.50;;;;;;;28.20;55.09;99804.63;5049427;28;20228;-65
2023/08/14 06:25:18;;;;;;;0.80;0.80;;;;;;;28.41;56.19;99797.25;5047002;28;20201;-66
2023/08/14 06:27:44;;;;;;;0.60;0.60;;;;;;;28.71;53.69;99804.00;5044101;28;20270;-65
2023/08/14 06:30:12;;;;;;;0.43;0.43;;;;;;;28.99;50.66;99802.06;5049680;28;20201;-65
2023/08/14 06:32:40;;;;;;;0.68;0.68;;;;;;;29.26;50.62;99798.47;5049645;28;20208;-65
2023/08/14 06:35:08;;;;;;;0.75;0.50;;;;;;;29.55;47.76;99805.09;5047990;28;20207;-66
2023/08/14 06:37:35;;;;;;;0.60;0.60;;;;;;;29.65;46.97;99812.91;5047001;28;20220;-65
2023/08/14 06:40:03;;;;;;;0.77;0.77;;;;;;;29.84;48.08;99809.22;5047954;28;20228;-65
2023/08/14 06:42:30;;;;;;;0.40;0.40;;;;;;;29.98;48.89;99806.81;5047064;28;20672;-65
2023/08/14 06:44:57;;;;;;;0.68;0.68;;;;;;;30.18;51.98;99808.19;5047436;28;20562;-65
2023/08/14 06:47:23;;;;;;;2.63;0.65;;;;;;;30.40;48.03;99811.25;5048230;28;20205;-65
2023/08/14 06:49:51;;;;;;;0.50;0.50;;;;;;;30.61;47.19;99820.38;5046521;28;20258;-65
2023/08/14 06:52:18;;;;;;;1.90;0.75;;;;;;;30.78;47.74;99809.78;5050378;28;20204;-66
2023/08/14 06:54:45;;;;;;;2.58;0.80;;;;;;;30.84;46.79;99815.25;5049180;28;20616;-66
2023/08/14 06:57:12;;;;;;;0.50;0.50;;;;;;;31.01;46.54;99816.94;5049995;28;20228;-67
2023/08/14 06:59:39;;;;;;;0.50;0.50;;;;;;;31.17;44.83;99811.63;5050030;28;20212;-67
2023/08/14 07:02:05;;;;;;;0.75;0.75;;;;;;;31.29;45.79;99811.25;5050164;28;20212;-67
2023/08/14 07:04:32;;;;;;;0.50;0.50;;;;;;;31.37;43.58;99813.91;5047722;28;20944;-66
2023/08/14 07:07:00;;;;;;;0.45;0.45;;;;;;;31.53;43.38;99819.19;5048412;28;20201;-67
2023/08/14 07:09:27;;;;;;;0.50;0.50;;;;;;;31.61;43.19;99816.50;5050944;28;20612;-67
2023/08/14 07:11:54;;;;;;;1.35;0.60;;;;;;;31.65;43.46;99815.19;5049427;28;20699;-67
2023/08/14 07:14:20;;;;;;;0.57;0.57;;;;;;;31.81;43.10;99824.88;5049602;28;20207;-66
2023/08/14 07:16:48;;;;;;;0.43;0.43;;;;;;;31.87;42.79;99809.13;5049509;28;20220;-66
2023/08/14 07:19:17;;;;;;;0.45;0.45;;;;;;;31.95;40.36;99822.38;5048565;28;20231;-67
2023/08/14 07:21:44;;;;;;;0.60;0.60;;;;;;;31.98;40.15;99826.50;5049932;28;20200;-67
2023/08/14 07:24:13;;;;;;;0.50;0.50;;;;;;;32.07;41.08;99821.00;5049026;28;20224;-67
2023/08/14 07:26:40;;;;;;;0.88;0.80;;;;;;;32.09;42.90;99819.00;5050003;28;20288;-66
2023/08/14 07:29:07;;;;;;;0.57;0.57;;;;;;;31.77;39.62;99819.09;5048461;28;20207;-66
2023/08/14 07:31:33;;;;;;;0.70;0.70;;;;;;;31.82;40.42;99822.09;5050396;28;20204;-66
2023/08/14 07:34:00;;;;;;;0.50;0.50;;;;;;;31.48;39.71;99814.38;5049887;28;20216;-67
2023/08/14 07:36:27;;;;;;;0.40;0.40;;;;;;;31.50;42.02;99807.13;5048755;28;20692;-67
2023/08/14 07:38:54;;;;;;;2.47;0.80;;;;;;;31.65;41.21;99815.19;5050660;28;20197;-67
2023/08/14 07:41:22;;;;;;;0.55;0.55;;;;;;;31.85;42.12;99810.31;5049719;28;20204;-67
2023/08/14 07:43:49;;;;;;;0.40;0.40;;;;;;;32.06;41.20;99805.25;5043462;28;20204;-67
2023/08/14 07:46:17;;;;;;;0.80;0.80;;;;;;;31.79;39.80;99814.47;5046550;28;20213;-66
2023/08/14 07:48:44;;;;;;;0.50;0.50;;;;;;;31.82;39.57;99814.13;5048192;28;20197;-68
2023/08/14 07:51:11;;;;;;;0.52;0.52;;;;;;;31.54;39.57;99807.59;5045525;28;20209;-67
2023/08/14 07:53:38;;;;;;;0.65;0.65;;;;;;;31.59;40.68;99807.91;5049528;28;20201;-66
2023/08/14 07:56:05;;;;;;;0.50;0.50;;;;;;;31.85;39.52;99805.81;5046716;28;20254;-66
2023/08/14 07:58:33;;;;;;;0.60;0.60;;;;;;;32.02;40.33;99811.88;5048088;28;20649;-66
2023/08/14 08:01:00;;;;;;;0.40;0.40;;;;;;;32.12;39.19;99805.38;5048852;28;20200;-66
2023/08/14 08:03:27;;;;;;;2.83;0.65;;;;;;;31.76;39.05;99801.56;5047431;28;20215;-67
2023/08/14 08:05:54;;;;;;;0.57;0.57;;;;;;;31.44;38.99;99812.25;5048164;28;20215;-66
2023/08/14 08:08:21;;;;;;;1.15;0.75;;;;;;;31.53;40.03;99805.94;5042953;28;20228;-66
2023/08/14 08:10:47;;;;;;;4.18;0.70;;;;;;;31.23;41.39;99800.34;5047756;28;20940;-65
2023/08/14 08:13:14;;;;;;;0.40;0.40;;;;;;;31.45;39.53;99797.97;5047626;28;20212;-66
2023/08/14 08:15:42;;;;;;;0.50;0.50;;;;;;;31.54;38.83;99802.28;5047725;28;20205;-67
2023/08/14 08:18:09;;;;;;;1.60;0.70;;;;;;;31.67;38.14;99808.69;5046683;28;20296;-67
2023/08/14 08:20:36;;;;;;;0.50;0.50;;;;;;;31.91;38.85;99805.13;5048814;28;20209;-66
2023/08/14 08:23:03;;;;;;;0.40;0.40;;;;;;;32.07;38.27;99802.44;5047003;28;20233;-67
2023/08/14 08:25:31;;;;;;;0.93;0.70;;;;;;;32.34;37.40;99801.13;5047128;28;20197;-67
2023/08/14 08:27:58;;;;;;;0.57;0.57;;;;;;;32.25;36.36;99802.97;5045744;28;20200;-68
2023/08/14 08:30:24;;;;;;;0.50;0.50;;;;;;;32.39;37.72;99795.28;5048597;28;20627;-67
2023/08/14 08:32:52;;;;;;;0.60;0.60;;;;;;;32.50;39.38;99794.88;5048546;28;20196;-67
2023/08/14 08:35:19;;;;;;;0.50;0.50;;;;;;;32.53;37.44;99792.69;5048134;28;20220;-68
2023/08/14 08:37:47;;;;;;;0.40;0.40;;;;;;;32.52;35.94;99788.38;5049387;28;20221;-68
2023/08/14 08:40:14;;;;;;;0.70;0.70;;;;;;;32.51;38.29;99789.38;5052408;28;20715;-68
2023/08/14 08:42:41;;;;;;;0.47;0.47;;;;;;;32.49;37.54;99794.03;5051730;28;20660;-68
2023/08/14 08:45:09;;;;;;;0.65;0.65;;;;;;;32.53;38.20;99789.19;5051307;28;20212;-68
2023/08/14 08:47:39;;;;;;;0.70;0.70;;;;;;;32.35;36.30;99786.00;5052646;28;20209;-68
2023/08/14 08:50:09;;;;;;;0.60;0.60;;;;;;;32.24;37.14;99785.44;5050692;28;20209;-68
2023/08/14 08:52:36;;;;;;;0.65;0.65;;;;;;;32.03;37.10;99793.13;5051681;28;20205;-68
2023/08/14 08:55:04;;;;;;;2.00;0.50;;;;;;;31.71;37.05;99762.28;5052283;28;20284;-67
2023/08/14 08:57:31;;;;;;;0.68;0.68;;;;;;;31.92;36.99;99785.59;5051703;28;20597;-68
2023/08/14 08:59:59;;;;;;;1.02;0.68;;;;;;;31.96;38.37;99778.91;5052776;28;20232;-68
2023/08/14 09:02:26;;;;;;;0.57;0.57;;;;;;;31.89;37.38;99785.91;5053213;28;20247;-68
2023/08/14 09:04:53;;;;;;;0.50;0.50;;;;;;;31.67;36.57;99776.88;5053353;28;20279;-68
2023/08/14 09:07:21;;;;;;;0.63;0.63;;;;;;;31.46;37.39;99773.97;5049838;28;20189;-68
2023/08/14 09:09:48;;;;;;;0.50;0.50;;;;;;;31.24;38.60;99775.50;5052294;28;20197;-67
2023/08/14 09:12:15;;;;;;;0.68;0.68;;;;;;;30.83;39.33;99779.16;5053335;28;20742;-67
2023/08/14 09:14:43;;;;;;;0.40;0.40;;;;;;;30.80;39.92;99768.91;5052966;28;20196;-67
2023/08/14 09:17:11;;;;;;;0.40;0.40;;;;;;;30.74;39.02;99756.34;5052039;28;20229;-67
2023/08/14 09:19:39;;;;;;;0.70;0.57;;;;;;;30.99;39.44;99771.25;5052765;28;20203;-67
2023/08/14 09:22:07;;;;;;;0.60;0.60;;;;;;;30.91;38.57;99765.09;5052529;28;20327;-67
2023/08/14 09:24:37;;;;;;;0.55;0.55;;;;;;;30.93;40.54;99750.69;5052497;28;20243;-67
2023/08/14 09:27:04;;;;;;;0.90;0.90;;;;;;;31.17;40.65;99763.13;5050911;28;20199;-67
2023/08/14 09:29:32;;;;;;;0.52;0.52;;;;;;;31.38;39.66;99771.31;5051966;28;20279;-68
2023/08/14 09:32:01;;;;;;;0.50;0.50;;;;;;;31.23;37.59;99763.25;5051500;28;20232;-67
2023/08/14 09:34:30;;;;;;;0.50;0.50;;;;;;;31.49;39.13;99762.19;5052225;28;20730;-67
2023/08/14 09:36:58;;;;;;;0.50;0.50;;;;;;;31.67;38.55;99762.81;5052262;28;20201;-67
2023/08/14 09:39:24;;;;;;;1.27;0.88;;;;;;;31.80;37.38;99763.06;5052219;28;20243;-67
2023/08/14 09:41:53;;;;;;;0.52;0.52;;;;;;;31.96;36.26;99763.00;5051309;28;20712;-67
2023/08/14 09:44:20;;;;;;;0.50;0.50;;;;;;;32.24;39.95;99758.06;5046169;28;20200;-67
2023/08/14 09:46:49;;;;;;;0.63;0.50;;;;;;;32.38;37.95;99754.63;5050691;28;20224;-67
2023/08/14 09:49:17;;;;;;;0.47;0.47;;;;;;;32.57;36.60;99754.19;5051141;28;20193;-67
2023/08/14 09:51:54;;;;;;;0.50;0.50;;;;;;;32.48;36.04;99749.06;5048746;28;20200;-67
2023/08/14 09:54:30;;;;;;;0.70;0.70;;;;;;;32.41;37.18;99745.50;5049968;28;20215;-68
2023/08/14 09:57:00;;;;;;;0.60;0.60;;;;;;;32.36;37.38;99747.84;5048365;28;20565;-68
2023/08/14 09:59:27;;;;;;;0.80;0.80;;;;;;;32.23;36.73;99740.47;5048018;28;20244;-68
2023/08/14 10:01:54;;;;;;;0.57;0.57;;;;;;;32.11;36.21;99734.78;5051248;28;20208;-69
2023/08/14 10:04:24;;;;;;;0.50;0.50;;;;;;;32.10;36.33;99735.75;5048925;28;20743;-68
2023/08/14 10:06:52;;;;;;;0.65;0.50;;;;;;;31.96;36.78;99717.91;5049215;28;20211;-68
2023/08/14 10:09:22;;;;;;;0.55;0.52;;;;;;;32.06;36.63;99745.06;5048987;28;20259;-69
2023/08/14 10:11:50;;;;;;;0.50;0.50;;;;;;;31.91;35.60;99735.34;5050067;28;20387;-69
2023/08/14 10:14:20;;;;;;;0.40;0.40;;;;;;;31.78;36.55;99730.63;5048560;28;20213;-67
2023/08/14 10:16:50;;;;;;;0.40;0.40;;;;;;;31.71;37.05;99738.44;5049127;28;20205;-68
2023/08/14 10:19:21;;;;;;;0.50;0.50;;;;;;;31.42;35.71;99735.53;5049031;28;20255;-68
2023/08/14 10:21:53;;;;;;;0.65;0.65;;;;;;;31.56;36.64;99731.38;5048436;28;20212;-70
2023/08/14 10:24:22;;;;;;;0.60;0.60;;;;;;;31.68;36.01;99735.31;5050845;28;20266;-68
2023/08/14 10:26:49;;;;;;;0.50;0.50;;;;;;;31.80;36.17;99725.13;5051471;28;20262;-68
2023/08/14 10:29:18;;;;;;;0.60;0.57;;;;;;;31.98;36.37;99721.22;5048163;28;20345;-68
2023/08/14 10:31:46;;;;;;;0.50;0.50;;;;;;;32.13;35.96;99724.78;5045961;28;20222;-68
2023/08/14 10:34:16;;;;;;;2.70;0.80;;;;;;;32.19;38.12;99718.78;5050547;28;20208;-68
2023/08/14 10:36:42;;;;;;;0.85;0.52;;;;;;;32.36;38.69;99718.66;5048977;28;20229;-67
2023/08/14 10:39:11;;;;;;;0.50;0.50;;;;;;;32.42;39.54;99707.31;5049560;28;20220;-68
2023/08/14 10:41:38;;;;;;;0.68;0.68;;;;;;;32.37;36.85;99704.41;5047494;28;20216;-67
2023/08/14 10:44:06;;;;;;;0.40;0.40;;;;;;;32.46;36.52;99703.31;5051314;28;20201;-67
2023/08/14 10:46:38;;;;;;;1.88;0.60;;;;;;;32.42;37.32;99707.31;5050475;28;20208;-66
2023/08/14 10:49:05;;;;;;;0.65;0.65;;;;;;;32.41;35.61;99705.69;5051488;28;20192;-67
2023/08/14 10:51:33;;;;;;;0.45;0.45;;;;;;;32.35;36.25;99706.38;5047194;28;20201;-67
2023/08/14 10:54:09;;;;;;;0.50;0.50;;;;;;;32.49;36.12;99692.34;5045905;28;20561;-68
2023/08/14 10:56:43;;;;;;;0.47;0.47;;;;;;;32.41;36.42;99684.47;5049500;28;20208;-66
2023/08/14 10:59:23;;;;;;;0.50;0.50;;;;;;;32.45;36.19;99691.03;5051326;28;20227;-67
2023/08/14 11:02:04;;;;;;;0.57;0.57;;;;;;;32.67;36.78;99692.84;5050197;28;20334;-68
2023/08/14 11:04:31;;;;;;;0.50;0.50;;;;;;;32.18;36.41;99687.94;5050233;28;20708;-68
2023/08/14 11:07:08;;;;;;;0.70;0.70;;;;;;;32.00;36.99;99689.19;5049109;28;20207;-68
2023/08/14 11:09:36;;;;;;;0.70;0.70;;;;;;;32.04;37.39;99696.69;5046818;28;20201;-68
2023/08/14 11:12:06;;;;;;;0.50;0.50;;;;;;;32.29;36.21;99692.00;5050753;28;20353;-68
2023/08/14 11:14:36;;;;;;;0.70;0.70;;;;;;;32.37;35.82;99661.94;5050176;28;20219;-68
2023/08/14 11:17:04;;;;;;;0.60;0.60;;;;;;;32.48;37.63;99680.06;5049756;28;20287;-67
2023/08/14 11:19:34;;;;;;;0.57;0.57;;;;;;;32.44;36.76;99673.50;5051141;28;20216;-68
2023/08/14 11:22:01;;;;;;;0.55;0.55;;;;;;;32.44;36.85;99668.19;5050416;28;20232;-69
2023/08/14 11:24:29;;;;;;;0.73;0.73;;;;;;;32.44;35.91;99673.50;5051387;28;20602;-70
2023/08/14 11:26:58;;;;;;;0.50;0.50;;;;;;;32.20;36.17;99672.69;5048356;28;20224;-69
2023/08/14 11:29:24;;;;;;;0.50;0.50;;;;;;;32.16;36.82;99668.72;5047483;28;20212;-69
2023/08/14 11:31:51;;;;;;;1.02;0.68;;;;;;;32.02;37.72;99661.50;5049688;28;20208;-67
2023/08/14 11:34:21;;;;;;;0.50;0.50;;;;;;;32.16;37.88;99660.75;5049253;28;20203;-67
2023/08/14 11:36:55;;;;;;;1.88;0.70;;;;;;;32.40;36.87;99658.91;5049520;28;20750;-67